Terminal Aerodrome Forecast
Issued by NWS

Home | Current Version | Previous Version | Text Only | Print | Product List | Glossary Off
Versions: 1 2 3 4 5 6 7 8 9 10 11 12 13 14 15 16 17

289
FTUS43 KBIS 190535
TAFDIK
TAF
KDIK 190535Z 1906/2006 19008KT P6SM SCT250
     FM191100 22008KT P6SM SCT250
     FM192000 19008KT P6SM FEW250
     FM192300 15007KT P6SM FEW300=

USA.gov is the U.S. government's official web portal to all federal, state and local government web resources and services.